createdAt,value
2022-12-08T00:01:11.401Z,78.73
2022-12-08T00:03:38.427Z,78.71
2022-12-08T00:06:26.239Z,78.51
2022-12-08T00:09:11.250Z,78.12
2022-12-08T00:11:39.216Z,78.13
2022-12-08T00:14:05.889Z,78.20
2022-12-08T00:16:32.707Z,78.23
2022-12-08T00:18:59.466Z,78.38
2022-12-08T00:21:26.089Z,78.28
2022-12-08T00:23:54.874Z,79.24
2022-12-08T00:26:21.553Z,79.04
2022-12-08T00:28:48.417Z,78.80
2022-12-08T00:31:15.197Z,78.34
2022-12-08T00:33:41.877Z,78.37
2022-12-08T00:36:09.234Z,78.75
2022-12-08T00:38:36.716Z,78.56
2022-12-08T00:41:05.182Z,78.27
2022-12-08T00:43:31.954Z,78.47
2022-12-08T00:45:58.821Z,78.90
2022-12-08T00:48:25.480Z,80.00
2022-12-08T00:50:52.139Z,80.31
2022-12-08T00:53:18.851Z,79.67
2022-12-08T00:55:45.460Z,79.47
2022-12-08T00:58:12.124Z,79.20
2022-12-08T01:00:40.835Z,78.76
2022-12-08T01:03:09.794Z,79.11
2022-12-08T01:05:36.572Z,79.83
2022-12-08T01:08:05.537Z,79.01
2022-12-08T01:10:32.232Z,78.75
2022-12-08T01:12:59.021Z,78.51
2022-12-08T01:15:25.698Z,78.76
2022-12-08T01:17:52.436Z,78.23
2022-12-08T01:20:19.097Z,78.29
2022-12-08T01:22:45.760Z,78.73
2022-12-08T01:25:12.443Z,78.90
2022-12-08T01:27:39.105Z,78.74
2022-12-08T01:30:07.472Z,78.60
2022-12-08T01:32:34.786Z,79.01
2022-12-08T01:35:02.052Z,78.87
2022-12-08T01:37:29.861Z,78.83
2022-12-08T01:39:56.547Z,79.10
2022-12-08T01:42:27.722Z,79.31
2022-12-08T01:45:17.347Z,79.78
2022-12-08T01:47:45.730Z,79.21
2022-12-08T01:50:13.624Z,79.11
2022-12-08T01:52:46.825Z,79.32
2022-12-08T01:55:20.864Z,78.77
2022-12-08T01:57:49.413Z,78.47
2022-12-08T02:00:17.542Z,79.51
2022-12-08T02:02:47.715Z,79.54
2022-12-08T02:05:14.526Z,79.60
2022-12-08T02:07:41.400Z,80.17
2022-12-08T02:10:08.369Z,80.02
2022-12-08T02:12:35.111Z,80.01
2022-12-08T02:15:05.238Z,79.72
2022-12-08T02:17:40.347Z,79.14
2022-12-08T02:20:25.814Z,79.51
2022-12-08T02:23:03.245Z,79.67
2022-12-08T02:25:51.575Z,79.43
2022-12-08T02:28:38.475Z,79.40
2022-12-08T02:31:05.502Z,79.16
2022-12-08T02:33:41.432Z,79.14
2022-12-08T02:36:27.007Z,79.59
2022-12-08T02:38:53.667Z,80.05
2022-12-08T02:41:34.268Z,79.89
2022-12-08T02:44:05.488Z,79.52
2022-12-08T02:46:40.875Z,79.40
2022-12-08T02:49:07.890Z,79.68
2022-12-08T02:51:34.486Z,79.60
2022-12-08T02:54:02.491Z,79.27
2022-12-08T02:56:29.096Z,79.62
2022-12-08T02:59:01.879Z,80.58
2022-12-08T03:01:43.731Z,80.16
2022-12-08T03:04:17.017Z,79.53
2022-12-08T03:06:46.970Z,79.26
2022-12-08T03:09:32.384Z,79.48
2022-12-08T03:12:02.108Z,79.25
2022-12-08T03:14:30.627Z,78.97
2022-12-08T03:16:58.367Z,79.28
2022-12-08T03:19:27.861Z,79.13
2022-12-08T03:22:02.926Z,79.45
2022-12-08T03:24:38.003Z,79.67
2022-12-08T03:27:07.596Z,79.66
2022-12-08T03:29:34.729Z,80.04
2022-12-08T03:32:08.035Z,80.36
2022-12-08T03:34:36.216Z,80.18
2022-12-08T03:37:02.979Z,80.50
2022-12-08T03:39:29.645Z,80.18
2022-12-08T03:41:56.431Z,79.64
2022-12-08T03:44:23.100Z,79.71
2022-12-08T03:46:49.756Z,79.83
2022-12-08T03:49:16.396Z,80.58
2022-12-08T03:51:43.132Z,81.20
2022-12-08T03:54:09.844Z,82.37
2022-12-08T03:56:37.887Z,82.65
2022-12-08T03:59:05.330Z,82.45
2022-12-08T04:01:32.195Z,81.87
2022-12-08T04:03:58.989Z,81.15
2022-12-08T04:06:25.995Z,81.89
2022-12-08T04:08:52.697Z,82.92
2022-12-08T04:11:19.700Z,81.69
2022-12-08T04:13:46.438Z,81.29
2022-12-08T04:16:17.258Z,80.91
2022-12-08T04:18:45.292Z,81.24
2022-12-08T04:21:12.030Z,80.60
2022-12-08T04:23:38.693Z,80.48
2022-12-08T04:26:05.811Z,80.73
2022-12-08T04:28:32.791Z,80.86
2022-12-08T04:30:59.787Z,80.93
2022-12-08T04:33:26.519Z,80.58
2022-12-08T04:35:53.226Z,80.65
2022-12-08T04:38:20.130Z,80.30
2022-12-08T04:40:46.788Z,80.78
2022-12-08T04:43:13.437Z,80.90
2022-12-08T04:45:40.953Z,80.65
2022-12-08T04:48:07.992Z,80.45
2022-12-08T04:50:34.678Z,80.79
2022-12-08T04:53:01.550Z,80.70
2022-12-08T04:55:28.193Z,80.33
2022-12-08T04:57:54.840Z,80.24
2022-12-08T05:00:21.563Z,81.05
2022-12-08T05:02:48.297Z,80.64
2022-12-08T05:05:15.002Z,80.73
2022-12-08T05:07:41.747Z,80.98
2022-12-08T05:10:08.582Z,81.14
2022-12-08T05:12:35.230Z,80.93
2022-12-08T05:15:01.869Z,80.74
2022-12-08T05:17:28.652Z,80.80
2022-12-08T05:19:55.670Z,80.58
2022-12-08T05:22:29.623Z,81.06
2022-12-08T05:24:56.304Z,81.13
2022-12-08T05:27:23.122Z,81.15
2022-12-08T05:29:50.419Z,81.19
2022-12-08T05:32:17.056Z,81.46
2022-12-08T05:34:43.718Z,81.59
2022-12-08T05:37:10.371Z,81.53
2022-12-08T05:39:37.154Z,81.26
2022-12-08T05:42:04.026Z,81.54
2022-12-08T05:44:30.645Z,81.62
2022-12-08T05:46:57.284Z,81.91
2022-12-08T05:49:23.937Z,81.32
2022-12-08T05:51:50.784Z,81.59
2022-12-08T05:54:17.421Z,81.90
2022-12-08T05:56:44.211Z,81.63
2022-12-08T05:59:11.068Z,80.84
2022-12-08T06:01:37.887Z,81.39
2022-12-08T06:04:05.126Z,82.58
2022-12-08T06:06:32.240Z,82.30
2022-12-08T06:08:59.073Z,82.03
2022-12-08T06:11:27.256Z,81.41
2022-12-08T06:13:54.700Z,81.99
2022-12-08T06:16:22.924Z,81.76
2022-12-08T06:18:49.736Z,81.52
2022-12-08T06:21:16.738Z,81.73
2022-12-08T06:23:43.515Z,81.81
2022-12-08T06:26:14.784Z,81.98
2022-12-08T06:28:42.456Z,81.97
2022-12-08T06:31:11.827Z,81.75
2022-12-08T06:33:38.470Z,81.80
2022-12-08T06:36:05.691Z,82.46
2022-12-08T06:38:32.585Z,82.05
2022-12-08T06:40:59.616Z,82.72
2022-12-08T06:43:26.857Z,82.48
2022-12-08T06:45:53.597Z,82.56
2022-12-08T06:48:20.394Z,82.47
2022-12-08T06:50:47.055Z,82.30
2022-12-08T06:53:15.150Z,82.00
2022-12-08T06:55:59.110Z,81.94
2022-12-08T06:58:26.315Z,81.94
2022-12-08T07:00:55.872Z,83.44
2022-12-08T07:03:42.990Z,84.16
2022-12-08T07:06:14.522Z,84.53
2022-12-08T07:08:41.239Z,83.93
2022-12-08T07:11:13.227Z,83.70
2022-12-08T07:13:43.398Z,83.25
2022-12-08T07:16:11.950Z,82.99
2022-12-08T07:18:39.192Z,82.85
2022-12-08T07:21:06.750Z,82.58
2022-12-08T07:23:33.451Z,82.54
2022-12-08T07:26:01.401Z,82.46
2022-12-08T07:28:29.922Z,81.99
2022-12-08T07:30:56.598Z,81.91
2022-12-08T07:33:23.333Z,81.81
2022-12-08T07:35:56.797Z,81.66
2022-12-08T07:38:23.875Z,81.98
2022-12-08T07:40:50.963Z,82.33
2022-12-08T07:43:17.761Z,81.94
2022-12-08T07:45:44.462Z,82.13
2022-12-08T07:48:11.151Z,82.00
2022-12-08T07:50:38.108Z,81.55
2022-12-08T07:53:05.371Z,82.10
2022-12-08T07:55:32.352Z,82.06
2022-12-08T07:57:59.048Z,81.62
2022-12-08T08:00:25.837Z,81.70
2022-12-08T08:02:52.642Z,81.74
2022-12-08T08:05:19.888Z,81.61
2022-12-08T08:07:48.507Z,81.73
2022-12-08T08:10:15.374Z,81.33
2022-12-08T08:12:42.013Z,81.33
2022-12-08T08:15:09.552Z,81.46
2022-12-08T08:17:37.533Z,81.39
2022-12-08T08:20:07.287Z,81.57
2022-12-08T08:22:40.116Z,81.33
2022-12-08T08:25:06.879Z,81.12
2022-12-08T08:27:33.636Z,81.25
2022-12-08T08:30:00.269Z,81.79
2022-12-08T08:32:35.253Z,82.81
2022-12-08T08:37:49.258Z,82.06
2022-12-08T08:40:16.923Z,81.28
2022-12-08T08:42:44.178Z,81.29
2022-12-08T08:45:11.193Z,81.24
2022-12-08T08:47:37.834Z,81.50
2022-12-08T08:50:05.072Z,81.31
2022-12-08T08:52:34.447Z,81.08
2022-12-08T08:55:01.103Z,81.06
2022-12-08T08:57:27.887Z,81.32
2022-12-08T08:59:54.747Z,81.01
2022-12-08T09:02:27.468Z,80.32
2022-12-08T09:04:54.286Z,80.27
2022-12-08T09:07:20.978Z,79.77
2022-12-08T09:09:47.820Z,80.26
2022-12-08T09:12:14.562Z,79.06
2022-12-08T09:14:41.394Z,78.92
2022-12-08T09:17:08.680Z,79.13
2022-12-08T09:19:35.577Z,78.88
2022-12-08T09:22:02.351Z,78.68
2022-12-08T09:24:29.107Z,78.62
2022-12-08T09:26:57.292Z,78.73
2022-12-08T09:29:24.523Z,78.26
2022-12-08T09:31:51.292Z,78.25
2022-12-08T09:34:18.043Z,77.87
2022-12-08T09:36:44.746Z,77.77
2022-12-08T09:39:11.555Z,77.34
2022-12-08T09:41:48.524Z,77.52
2022-12-08T09:44:34.208Z,77.51
2022-12-08T09:47:02.338Z,77.14
2022-12-08T09:49:39.763Z,76.85
2022-12-08T09:52:11.399Z,76.75
2022-12-08T09:54:38.062Z,77.09
2022-12-08T09:57:07.592Z,77.13
2022-12-08T09:59:35.162Z,76.55
2022-12-08T10:02:02.951Z,76.33
2022-12-08T10:04:32.590Z,76.65
2022-12-08T10:07:18.213Z,76.65
2022-12-08T10:09:50.151Z,76.60
2022-12-08T10:12:39.740Z,76.30
2022-12-08T10:15:25.216Z,76.18
2022-12-08T10:17:52.118Z,76.42
2022-12-08T10:20:26.106Z,76.38
2022-12-08T10:23:13.007Z,76.13
2022-12-08T10:25:45.400Z,76.18
2022-12-08T10:28:12.615Z,75.78
2022-12-08T10:30:39.369Z,75.56
2022-12-08T10:33:10.015Z,76.12
2022-12-08T10:36:05.040Z,75.98
2022-12-08T10:38:39.798Z,75.63
2022-12-08T10:41:09.452Z,75.75
2022-12-08T10:43:49.887Z,75.49
2022-12-08T10:46:18.796Z,74.92
2022-12-08T10:48:53.567Z,74.99
2022-12-08T10:51:28.510Z,74.66
2022-12-08T10:53:57.406Z,74.37
2022-12-08T10:56:26.592Z,75.66
2022-12-08T10:59:05.710Z,75.95
2022-12-08T11:01:38.238Z,74.97
2022-12-08T11:04:15.731Z,74.45
2022-12-08T11:06:42.645Z,73.92
2022-12-08T11:09:18.669Z,74.09
2022-12-08T11:11:47.674Z,73.68
2022-12-08T11:14:20.582Z,73.54
2022-12-08T11:16:47.566Z,73.36
2022-12-08T11:19:18.521Z,73.60
2022-12-08T11:21:45.255Z,73.88
2022-12-08T11:24:14.952Z,74.07
2022-12-08T11:26:45.749Z,73.85
2022-12-08T11:29:13.112Z,74.12
2022-12-08T11:32:08.124Z,73.66
2022-12-08T11:34:42.329Z,74.46
2022-12-08T11:37:13.152Z,74.27
2022-12-08T11:39:44.432Z,74.07
2022-12-08T11:42:13.320Z,73.85
2022-12-08T11:44:40.011Z,74.68
2022-12-08T11:47:16.811Z,74.13
2022-12-08T11:49:43.911Z,74.08
2022-12-08T11:52:38.452Z,74.43
2022-12-08T11:55:23.892Z,74.12
2022-12-08T11:57:52.033Z,73.91
2022-12-08T12:00:19.363Z,73.12
2022-12-08T12:02:50.242Z,72.97
2022-12-08T12:05:39.842Z,72.83
2022-12-08T12:08:31.301Z,72.79
2022-12-08T12:11:10.219Z,72.92
2022-12-08T12:13:55.566Z,72.41
2022-12-08T12:16:41.976Z,72.47
2022-12-08T12:19:16.639Z,73.27
2022-12-08T12:21:48.906Z,71.94
2022-12-08T12:24:35.735Z,72.89
2022-12-08T12:27:06.941Z,71.81
2022-12-08T12:29:35.312Z,71.58
2022-12-08T12:32:04.213Z,71.59
2022-12-08T12:34:33.274Z,72.02
2022-12-08T12:37:10.507Z,71.29
2022-12-08T12:39:49.208Z,71.01
2022-12-08T12:42:38.661Z,70.65
2022-12-08T12:45:16.477Z,71.42
2022-12-08T12:47:49.626Z,71.47
2022-12-08T12:50:34.701Z,71.38
2022-12-08T12:53:16.585Z,71.93
2022-12-08T12:55:54.351Z,71.79
2022-12-08T12:58:30.697Z,71.39
2022-12-08T13:01:15.463Z,70.98
2022-12-08T13:03:48.242Z,70.40
2022-12-08T13:06:15.506Z,70.33
2022-12-08T13:08:53.211Z,70.68
2022-12-08T13:11:20.534Z,70.12
2022-12-08T13:14:01.551Z,70.50
2022-12-08T13:16:31.973Z,69.38
2022-12-08T13:19:02.501Z,69.45
2022-12-08T13:21:35.125Z,69.93
2022-12-08T13:24:10.853Z,69.83
2022-12-08T13:26:44.764Z,70.66
2022-12-08T13:29:15.216Z,70.00
2022-12-08T13:31:50.141Z,69.54
2022-12-08T13:34:37.283Z,69.27
2022-12-08T13:37:06.899Z,69.91
2022-12-08T13:39:39.858Z,70.36
2022-12-08T13:42:06.696Z,68.57
2022-12-08T13:47:34.808Z,67.24
2022-12-08T13:58:42.149Z,68.02
2022-12-08T14:01:13.159Z,67.94
2022-12-08T14:04:12.714Z,68.04
2022-12-08T14:06:37.225Z,68.68
2022-12-08T14:09:10.653Z,68.73
2022-12-08T14:11:43.064Z,68.27
2022-12-08T14:17:23.330Z,68.21
2022-12-08T14:20:00.684Z,67.92
2022-12-08T14:22:36.254Z,67.82
2022-12-08T14:25:04.267Z,68.42
2022-12-08T14:27:37.919Z,68.24
2022-12-08T14:30:09.046Z,67.79
2022-12-08T14:32:42.626Z,67.91
2022-12-08T14:35:09.220Z,68.31
2022-12-08T14:37:41.386Z,68.02
2022-12-08T14:40:26.856Z,69.40
2022-12-08T14:42:55.547Z,68.81
2022-12-08T14:45:22.487Z,68.67
2022-12-08T14:47:49.428Z,68.44
2022-12-08T14:50:34.896Z,67.09
2022-12-08T14:53:02.132Z,66.95
2022-12-08T14:55:36.238Z,67.10
2022-12-08T14:58:03.166Z,67.02
2022-12-08T15:00:30.069Z,66.85
2022-12-08T15:02:57.529Z,66.82
2022-12-08T15:05:29.000Z,66.07
2022-12-08T15:08:00.332Z,65.10
2022-12-08T15:10:28.812Z,64.67
2022-12-08T15:12:58.342Z,65.43
2022-12-08T15:15:25.387Z,66.29
2022-12-08T15:18:02.497Z,65.70
2022-12-08T15:20:43.272Z,64.82
2022-12-08T15:23:36.125Z,64.64
2022-12-08T15:26:04.559Z,64.58
2022-12-08T15:28:31.312Z,64.79
2022-12-08T15:30:58.801Z,64.62
2022-12-08T15:33:29.219Z,64.91
2022-12-08T15:35:55.957Z,64.71
2022-12-08T15:38:24.881Z,64.35
2022-12-08T15:40:55.206Z,64.56
2022-12-08T15:43:23.317Z,64.80
2022-12-08T15:45:58.409Z,65.11
2022-12-08T15:48:27.257Z,64.79
2022-12-08T15:50:54.744Z,64.64
2022-12-08T15:53:21.437Z,64.66
2022-12-08T15:56:18.471Z,64.97
2022-12-08T16:01:23.522Z,65.00
2022-12-08T16:07:19.827Z,65.34
2022-12-08T16:09:31.196Z,65.17
2022-12-08T16:12:16.837Z,65.15
2022-12-08T16:17:31.739Z,65.07
2022-12-08T16:19:58.850Z,65.35
2022-12-08T16:25:22.600Z,65.29
2022-12-08T16:28:01.256Z,65.93
2022-12-08T16:30:32.800Z,65.94
2022-12-08T16:32:59.478Z,65.78
2022-12-08T16:35:26.372Z,65.33
2022-12-08T16:37:53.142Z,65.18
2022-12-08T16:40:19.862Z,65.11
2022-12-08T16:42:48.645Z,65.35
2022-12-08T16:45:25.909Z,65.22
2022-12-08T16:47:57.131Z,65.14
2022-12-08T16:50:23.876Z,65.43
2022-12-08T16:52:50.962Z,65.63
2022-12-08T16:55:18.938Z,66.48
2022-12-08T16:57:46.390Z,66.42
2022-12-08T17:00:14.681Z,67.00
2022-12-08T17:02:41.560Z,67.52
2022-12-08T17:05:09.003Z,68.19
2022-12-08T17:07:36.112Z,68.80
2022-12-08T17:10:04.872Z,69.15
2022-12-08T17:12:31.799Z,69.12
2022-12-08T17:14:58.479Z,69.46
2022-12-08T17:17:25.623Z,69.67
2022-12-08T17:19:52.414Z,69.61
2022-12-08T17:22:19.041Z,70.01
2022-12-08T17:24:45.747Z,70.78
2022-12-08T17:27:12.392Z,70.45
2022-12-08T17:29:39.057Z,70.97
2022-12-08T17:32:05.973Z,70.95
2022-12-08T17:34:32.711Z,71.37
2022-12-08T17:36:59.460Z,71.60
2022-12-08T17:39:26.230Z,71.50
2022-12-08T17:41:52.924Z,71.45
2022-12-08T17:44:19.880Z,72.04
2022-12-08T17:46:52.703Z,71.75
2022-12-08T17:49:24.177Z,72.20
2022-12-08T17:51:51.976Z,72.12
2022-12-08T17:54:19.637Z,72.39
2022-12-08T17:56:46.779Z,72.62
2022-12-08T17:59:14.184Z,72.94
2022-12-08T18:01:41.365Z,73.07
2022-12-08T18:04:08.981Z,72.77
2022-12-08T18:06:39.084Z,72.99
2022-12-08T18:09:07.447Z,73.27
2022-12-08T18:11:35.172Z,73.23
2022-12-08T18:14:09.625Z,73.70
2022-12-08T18:16:38.111Z,73.59
2022-12-08T18:19:05.190Z,73.72
2022-12-08T18:21:31.894Z,74.02
2022-12-08T18:23:58.559Z,73.82
2022-12-08T18:26:25.392Z,74.26
2022-12-08T18:28:52.059Z,74.37
2022-12-08T18:31:20.909Z,74.97
2022-12-08T18:33:48.346Z,75.41
2022-12-08T18:36:18.629Z,75.46
2022-12-08T18:38:45.739Z,75.49
2022-12-08T18:41:17.518Z,75.13
2022-12-08T18:43:44.438Z,75.96
2022-12-08T18:46:12.262Z,75.97
2022-12-08T18:48:48.678Z,76.09
2022-12-08T18:51:16.741Z,76.00
2022-12-08T18:53:43.956Z,76.49
2022-12-08T18:56:24.839Z,76.33
2022-12-08T18:58:51.585Z,76.12
2022-12-08T19:01:18.285Z,76.04
2022-12-08T19:03:58.505Z,75.94
2022-12-08T19:06:33.149Z,76.22
2022-12-08T19:09:00.000Z,76.42
2022-12-08T19:11:29.046Z,76.13
2022-12-08T19:13:56.030Z,76.32
2022-12-08T19:16:23.176Z,76.62
2022-12-08T19:18:49.924Z,76.26
2022-12-08T19:21:16.746Z,76.20
2022-12-08T19:23:43.388Z,76.70
2022-12-08T19:26:10.971Z,76.56
2022-12-08T19:28:37.949Z,76.65
2022-12-08T19:31:05.838Z,76.83
2022-12-08T19:33:33.186Z,76.43
2022-12-08T19:36:03.980Z,76.48
2022-12-08T19:38:30.712Z,76.75
2022-12-08T19:41:16.136Z,76.43
2022-12-08T19:44:01.187Z,76.76
2022-12-08T19:46:27.858Z,76.39
2022-12-08T19:48:55.695Z,76.18
2022-12-08T19:51:22.393Z,76.57
2022-12-08T19:53:50.341Z,77.26
2022-12-08T19:56:17.015Z,77.16
2022-12-08T19:58:43.668Z,77.39
2022-12-08T20:01:10.429Z,77.74
2022-12-08T20:03:37.340Z,77.70
2022-12-08T20:06:04.256Z,77.71
2022-12-08T20:08:31.055Z,77.31
2022-12-08T20:10:59.294Z,77.59
2022-12-08T20:13:41.086Z,77.56
2022-12-08T20:16:08.592Z,77.96
2022-12-08T20:18:40.058Z,77.88
2022-12-08T20:21:06.882Z,78.05
2022-12-08T20:23:33.518Z,77.74
2022-12-08T20:26:03.666Z,77.65
2022-12-08T20:28:30.334Z,77.73
2022-12-08T20:30:57.041Z,78.21
2022-12-08T20:33:23.770Z,77.89
2022-12-08T20:35:59.253Z,77.36
2022-12-08T20:38:26.279Z,77.78
2022-12-08T20:40:53.100Z,77.33
2022-12-08T20:43:19.871Z,77.55
2022-12-08T20:45:46.512Z,77.67
2022-12-08T20:48:13.526Z,77.41
2022-12-08T20:50:40.333Z,77.44
2022-12-08T20:53:07.373Z,77.77
2022-12-08T20:55:35.739Z,77.23
2022-12-08T20:58:02.553Z,77.39
2022-12-08T21:00:29.344Z,77.36
2022-12-08T21:02:56.943Z,77.16
2022-12-08T21:05:24.337Z,76.99
2022-12-08T21:07:51.344Z,77.12
2022-12-08T21:10:18.079Z,76.73
2022-12-08T21:12:44.873Z,76.68
2022-12-08T21:15:12.803Z,76.85
2022-12-08T21:17:39.848Z,76.60
2022-12-08T21:20:07.495Z,76.69
2022-12-08T21:22:34.689Z,76.91
2022-12-08T21:25:01.310Z,76.35
2022-12-08T21:27:28.109Z,76.42
2022-12-08T21:29:54.753Z,76.45
2022-12-08T21:32:37.093Z,76.42
2022-12-08T21:35:03.784Z,76.43
2022-12-08T21:37:30.486Z,76.43
2022-12-08T21:39:57.245Z,75.97
2022-12-08T21:42:44.413Z,76.19
2022-12-08T21:45:12.565Z,75.71
2022-12-08T21:47:39.804Z,75.93
2022-12-08T21:50:07.766Z,75.97
2022-12-08T21:52:36.934Z,76.55
2022-12-08T21:55:03.828Z,76.12
2022-12-08T21:57:30.450Z,75.74
2022-12-08T21:59:57.671Z,75.16
2022-12-08T22:02:33.151Z,75.23
2022-12-08T22:05:00.222Z,75.43
2022-12-08T22:07:27.264Z,74.96
2022-12-08T22:09:54.212Z,75.26
2022-12-08T22:12:30.172Z,75.06
2022-12-08T22:14:56.828Z,75.13
2022-12-08T22:17:23.746Z,74.93
2022-12-08T22:19:51.639Z,74.75
2022-12-08T22:22:18.441Z,74.95
2022-12-08T22:24:45.181Z,74.95
2022-12-08T22:27:11.769Z,74.50
2022-12-08T22:29:38.724Z,75.06
2022-12-08T22:32:05.786Z,74.80
2022-12-08T22:34:32.529Z,74.52
2022-12-08T22:36:59.167Z,75.17
2022-12-08T22:39:25.932Z,74.47
2022-12-08T22:41:52.722Z,73.95
2022-12-08T22:44:19.488Z,73.86
2022-12-08T22:46:46.333Z,74.06
2022-12-08T22:49:13.275Z,74.06
2022-12-08T22:51:40.026Z,74.22
2022-12-08T22:54:06.755Z,73.96
2022-12-08T22:56:33.328Z,73.95
2022-12-08T22:59:00.035Z,73.65
2022-12-08T23:01:31.212Z,73.69
2022-12-08T23:03:58.784Z,73.80
2022-12-08T23:06:26.661Z,73.66
2022-12-08T23:08:54.181Z,73.23
2022-12-08T23:11:22.012Z,73.08
2022-12-08T23:13:48.729Z,73.56
2022-12-08T23:16:16.105Z,73.29
2022-12-08T23:18:44.415Z,73.40
2022-12-08T23:21:13.055Z,73.66
2022-12-08T23:23:40.280Z,73.47
2022-12-08T23:26:16.041Z,73.32
2022-12-08T23:28:43.126Z,73.33
2022-12-08T23:31:09.956Z,73.25
2022-12-08T23:33:37.115Z,73.15
2022-12-08T23:36:04.444Z,72.81
2022-12-08T23:38:31.663Z,72.34
2022-12-08T23:41:05.588Z,72.73
2022-12-08T23:43:33.346Z,72.86
2022-12-08T23:46:00.685Z,72.82
2022-12-08T23:48:29.212Z,72.62
2022-12-08T23:50:57.499Z,71.87
2022-12-08T23:53:24.389Z,71.77
2022-12-08T23:55:51.358Z,71.99
2022-12-08T23:58:18.274Z,71.59
